Fort Hunter, NY

5:14 AM EDT on September 16, 2019 (GMT -0400)
Chapel access Dad | | Change Station

Elev 525 ft 42.95 °N, 74.20 °W | Updated 18 seconds ago

Overcast
Overcast
54 °F
Feels Like 54 °F
N
0
Wind Variable Wind from NE
Gusts 0.0 mph

Today
High -- | Low -- °F
--% Chance of Precip.
Yesterday
High -- | Low -- °F
Precip. -- in
Pressure 30.09 in
Visibility 10.0 miles
Clouds Scattered Clouds 2000 ft
Scattered Clouds 7000 ft
Mostly Cloudy 26000 ft
Dew Point 52 °F
Humidity 93%
Rainfall 0.00 in
Snow Depth Not available.
6:37 AM 7:05 PM
Waning Gibbous, 96% visible
METAR KALB 160851Z 01006KT 10SM SCT020 SCT070 BKN260 16/11 A3009 RMK AO2 SLP189 T01560106 53002
Pressure 30.09 in
Visibility 10.0 miles
Clouds Scattered Clouds 2000 ft
Scattered Clouds 7000 ft
Mostly Cloudy 26000 ft
Dew Point 52 °F
Humidity 93%
Rainfall 0.00 in
Snow Depth Not available.
6:37 AM 7:05 PM
Waning Gibbous, 96% visible
METAR KALB 160851Z 01006KT 10SM SCT020 SCT070 BKN260 16/11 A3009 RMK AO2 SLP189 T01560106 53002

Get Severe Weather Alerts

Thanks for signing up!

Be on the lookout for a verification email in your inbox.

You'll start receiving the daily forecast at 6 AM.

×

10-Day Weather Forecast

Almanac

Astronomy

Sep. 16, 2019 Rise Set
Actual Time
Civil Twilight
Nautical Twilight
Astronomical Twilight
Moon
Length of Visible Light
Length of Day
Tomorrow will be .
, % of the Moon is Illuminated

Today's Extremes

State Highs State Lows

Community

WunderPhotos

Category 6

Welcome to Category 6. This is the collective home for Weather Underground's featured writeups by Dr. Jeff Masters (right), Bob Henson (left), Chris Burt, and other regular contributors.

Nearby

Air Quality

  Air Quality AQ Index Pollutant
Not available.

Snow Depth

Station Depth Elevation

Earthquake Activity

City Distance Mag. Time & Date
Minimum magnitude displayed is 2.5.

Coastal Water Temperatures

Place Temperature

Stations

Nearby Weather Stations

Station Location Temp. Windchill Dew Point Humidity Wind Precip. Elev Updated Type
                   

Watches & Warnings

There are currently no watches in effect.